In Rescue
 
Open Full Screen Window  High Contrast Mode
Wind Gusting 22 knots
12
April 20, 2024 10:32 AM EDT
Weather Information
Wind Direction
  280 °
Wind Speed
  12 kt (14 mph)
Wind Gust
  22 kt (25 mph)
Altimeter
30.08 in
Visibility
10 SM
Temperature
04° C
39° F
Dewpoint
-05° C
23° F
Humidity
52%
Sky Condition
Overcast @ 7,000 ft
Scattered @ 4,700 ft
Scattered @ 4,100 ft
VFR

METAR KD95 201432Z AUTO 28012G22KT 10SM SCT041 SCT047 OVC070 04/M05 A3008 RMK AO2 T00391049

FAA Disclaimer: The data displayed is for advisory purposes only and is not to be used for flight planning or operations.